sensor_id;sensor_type;location;lat;lon;timestamp;P1;durP1;ratioP1;P2;durP2;ratioP2
58685;SDS011;44465;53.206;-6.106;2022-12-10T00:02:07;5.65;;;3.00;;
58685;SDS011;44465;53.206;-6.106;2022-12-10T00:04:32;5.28;;;3.13;;
58685;SDS011;44465;53.206;-6.106;2022-12-10T00:06:59;5.15;;;2.95;;
58685;SDS011;44465;53.206;-6.106;2022-12-10T00:09:25;4.82;;;3.28;;
58685;SDS011;44465;53.206;-6.106;2022-12-10T00:11:50;4.75;;;2.60;;
58685;SDS011;44465;53.206;-6.106;2022-12-10T00:14:16;6.28;;;3.00;;
58685;SDS011;44465;53.206;-6.106;2022-12-10T00:16:46;5.80;;;2.85;;
58685;SDS011;44465;53.206;-6.106;2022-12-10T00:19:11;4.60;;;3.35;;
58685;SDS011;44465;53.206;-6.106;2022-12-10T00:21:37;4.38;;;2.67;;
58685;SDS011;44465;53.206;-6.106;2022-12-10T00:24:05;4.13;;;2.70;;
58685;SDS011;44465;53.206;-6.106;2022-12-10T00:26:35;3.83;;;2.72;;
58685;SDS011;44465;53.206;-6.106;2022-12-10T00:29:07;4.05;;;2.70;;
58685;SDS011;44465;53.206;-6.106;2022-12-10T00:31:39;2.67;;;2.25;;
58685;SDS011;44465;53.206;-6.106;2022-12-10T00:34:06;4.00;;;2.35;;
58685;SDS011;44465;53.206;-6.106;2022-12-10T00:36:42;3.97;;;2.33;;
58685;SDS011;44465;53.206;-6.106;2022-12-10T00:39:16;4.97;;;2.65;;
58685;SDS011;44465;53.206;-6.106;2022-12-10T00:41:45;3.53;;;2.40;;
58685;SDS011;44465;53.206;-6.106;2022-12-10T00:44:14;3.55;;;2.47;;
58685;SDS011;44465;53.206;-6.106;2022-12-10T00:47:02;2.58;;;1.80;;
58685;SDS011;44465;53.206;-6.106;2022-12-10T00:49:34;3.78;;;2.30;;
58685;SDS011;44465;53.206;-6.106;2022-12-10T00:51:59;3.90;;;2.53;;
58685;SDS011;44465;53.206;-6.106;2022-12-10T00:54:25;2.83;;;2.30;;
58685;SDS011;44465;53.206;-6.106;2022-12-10T00:56:50;4.47;;;2.50;;
58685;SDS011;44465;53.206;-6.106;2022-12-10T00:59:18;2.78;;;2.30;;
58685;SDS011;44465;53.206;-6.106;2022-12-10T01:01:45;5.65;;;3.08;;
58685;SDS011;44465;53.206;-6.106;2022-12-10T01:04:14;3.15;;;2.60;;
58685;SDS011;44465;53.206;-6.106;2022-12-10T01:06:52;3.95;;;2.85;;
58685;SDS011;44465;53.206;-6.106;2022-12-10T01:09:22;3.85;;;2.63;;
58685;SDS011;44465;53.206;-6.106;2022-12-10T01:11:52;6.32;;;2.80;;
58685;SDS011;44465;53.206;-6.106;2022-12-10T01:16:56;6.22;;;2.80;;
58685;SDS011;44465;53.206;-6.106;2022-12-10T01:19:29;5.45;;;2.58;;
58685;SDS011;44465;53.206;-6.106;2022-12-10T01:22:03;4.82;;;2.35;;
58685;SDS011;44465;53.206;-6.106;2022-12-10T01:26:54;9.55;;;2.55;;
58685;SDS011;44465;53.206;-6.106;2022-12-10T01:29:20;10.55;;;3.78;;
58685;SDS011;44465;53.206;-6.106;2022-12-10T01:31:49;10.60;;;2.92;;
58685;SDS011;44465;53.206;-6.106;2022-12-10T01:34:17;7.38;;;2.33;;
58685;SDS011;44465;53.206;-6.106;2022-12-10T01:36:48;7.10;;;2.20;;
58685;SDS011;44465;53.206;-6.106;2022-12-10T01:39:23;6.75;;;2.33;;
58685;SDS011;44465;53.206;-6.106;2022-12-10T01:42:09;6.97;;;2.40;;
58685;SDS011;44465;53.206;-6.106;2022-12-10T01:45:00;8.95;;;2.22;;
58685;SDS011;44465;53.206;-6.106;2022-12-10T01:47:28;5.90;;;2.42;;
58685;SDS011;44465;53.206;-6.106;2022-12-10T01:49:55;5.78;;;2.15;;
58685;SDS011;44465;53.206;-6.106;2022-12-10T01:52:22;5.07;;;2.38;;
58685;SDS011;44465;53.206;-6.106;2022-12-10T01:54:48;6.47;;;2.30;;
58685;SDS011;44465;53.206;-6.106;2022-12-10T01:57:15;3.85;;;1.90;;
58685;SDS011;44465;53.206;-6.106;2022-12-10T01:59:43;6.45;;;2.15;;
58685;SDS011;44465;53.206;-6.106;2022-12-10T02:05:39;5.07;;;2.40;;
58685;SDS011;44465;53.206;-6.106;2022-12-10T02:08:26;4.22;;;1.83;;
58685;SDS011;44465;53.206;-6.106;2022-12-10T02:11:31;6.57;;;2.00;;
58685;SDS011;44465;53.206;-6.106;2022-12-10T02:15:06;6.90;;;1.70;;
58685;SDS011;44465;53.206;-6.106;2022-12-10T02:18:38;3.22;;;1.58;;
58685;SDS011;44465;53.206;-6.106;2022-12-10T02:21:35;6.68;;;1.88;;
58685;SDS011;44465;53.206;-6.106;2022-12-10T02:24:06;4.90;;;2.20;;
58685;SDS011;44465;53.206;-6.106;2022-12-10T02:30:37;6.55;;;1.85;;
58685;SDS011;44465;53.206;-6.106;2022-12-10T02:33:45;4.22;;;2.15;;
58685;SDS011;44465;53.206;-6.106;2022-12-10T02:36:37;5.03;;;1.70;;
58685;SDS011;44465;53.206;-6.106;2022-12-10T02:39:25;4.72;;;1.70;;
58685;SDS011;44465;53.206;-6.106;2022-12-10T02:42:15;4.72;;;1.85;;
58685;SDS011;44465;53.206;-6.106;2022-12-10T02:45:02;5.15;;;1.70;;
58685;SDS011;44465;53.206;-6.106;2022-12-10T02:47:38;8.45;;;1.90;;
58685;SDS011;44465;53.206;-6.106;2022-12-10T02:50:40;8.48;;;1.73;;
58685;SDS011;44465;53.206;-6.106;2022-12-10T02:53:06;4.55;;;1.70;;
58685;SDS011;44465;53.206;-6.106;2022-12-10T02:55:37;6.47;;;1.50;;
58685;SDS011;44465;53.206;-6.106;2022-12-10T02:58:47;4.85;;;1.67;;
58685;SDS011;44465;53.206;-6.106;2022-12-10T03:07:38;7.00;;;1.70;;
58685;SDS011;44465;53.206;-6.106;2022-12-10T03:12:54;2.38;;;1.20;;
58685;SDS011;44465;53.206;-6.106;2022-12-10T03:15:58;2.85;;;1.40;;
58685;SDS011;44465;53.206;-6.106;2022-12-10T03:18:51;2.75;;;1.30;;
58685;SDS011;44465;53.206;-6.106;2022-12-10T03:21:40;4.95;;;1.48;;
58685;SDS011;44465;53.206;-6.106;2022-12-10T03:24:10;2.45;;;0.90;;
58685;SDS011;44465;53.206;-6.106;2022-12-10T03:26:55;2.22;;;1.38;;
58685;SDS011;44465;53.206;-6.106;2022-12-10T03:30:19;1.55;;;1.20;;
58685;SDS011;44465;53.206;-6.106;2022-12-10T03:32:44;4.50;;;1.08;;
58685;SDS011;44465;53.206;-6.106;2022-12-10T03:35:30;2.13;;;1.20;;
58685;SDS011;44465;53.206;-6.106;2022-12-10T03:38:19;3.70;;;1.63;;
58685;SDS011;44465;53.206;-6.106;2022-12-10T03:40:45;3.28;;;1.35;;
58685;SDS011;44465;53.206;-6.106;2022-12-10T03:43:13;1.58;;;0.95;;
58685;SDS011;44465;53.206;-6.106;2022-12-10T03:45:39;2.53;;;1.35;;
58685;SDS011;44465;53.206;-6.106;2022-12-10T03:48:25;1.35;;;1.08;;
58685;SDS011;44465;53.206;-6.106;2022-12-10T03:50:52;1.02;;;1.00;;
58685;SDS011;44465;53.206;-6.106;2022-12-10T03:53:19;1.67;;;1.33;;
58685;SDS011;44465;53.206;-6.106;2022-12-10T03:55:44;2.38;;;0.90;;
58685;SDS011;44465;53.206;-6.106;2022-12-10T03:58:10;1.65;;;1.10;;
58685;SDS011;44465;53.206;-6.106;2022-12-10T04:00:36;3.22;;;1.25;;
58685;SDS011;44465;53.206;-6.106;2022-12-10T04:03:01;2.90;;;1.15;;
58685;SDS011;44465;53.206;-6.106;2022-12-10T04:05:28;1.13;;;1.02;;
58685;SDS011;44465;53.206;-6.106;2022-12-10T04:08:00;3.03;;;1.25;;
58685;SDS011;44465;53.206;-6.106;2022-12-10T04:10:34;1.00;;;0.80;;
58685;SDS011;44465;53.206;-6.106;2022-12-10T04:13:19;1.42;;;1.05;;
58685;SDS011;44465;53.206;-6.106;2022-12-10T04:16:03;1.30;;;0.93;;
58685;SDS011;44465;53.206;-6.106;2022-12-10T04:18:48;1.65;;;1.10;;
58685;SDS011;44465;53.206;-6.106;2022-12-10T04:21:13;2.40;;;1.05;;
58685;SDS011;44465;53.206;-6.106;2022-12-10T04:24:00;1.67;;;0.98;;
58685;SDS011;44465;53.206;-6.106;2022-12-10T04:26:48;2.17;;;0.90;;
58685;SDS011;44465;53.206;-6.106;2022-12-10T04:29:23;1.60;;;0.98;;
58685;SDS011;44465;53.206;-6.106;2022-12-10T04:31:53;1.15;;;0.80;;
58685;SDS011;44465;53.206;-6.106;2022-12-10T04:34:28;1.83;;;0.90;;
58685;SDS011;44465;53.206;-6.106;2022-12-10T04:36:54;2.83;;;1.13;;
58685;SDS011;44465;53.206;-6.106;2022-12-10T04:39:21;1.27;;;0.85;;
58685;SDS011;44465;53.206;-6.106;2022-12-10T04:41:49;0.88;;;0.88;;
58685;SDS011;44465;53.206;-6.106;2022-12-10T04:44:15;0.82;;;0.75;;
58685;SDS011;44465;53.206;-6.106;2022-12-10T04:46:44;2.45;;;0.75;;
58685;SDS011;44465;53.206;-6.106;2022-12-10T04:49:10;1.60;;;1.17;;
58685;SDS011;44465;53.206;-6.106;2022-12-10T04:51:39;1.20;;;1.00;;
58685;SDS011;44465;53.206;-6.106;2022-12-10T04:54:08;0.93;;;0.77;;
58685;SDS011;44465;53.206;-6.106;2022-12-10T04:56:39;1.45;;;0.60;;
58685;SDS011;44465;53.206;-6.106;2022-12-10T04:59:07;1.88;;;1.02;;
58685;SDS011;44465;53.206;-6.106;2022-12-10T05:01:34;2.05;;;1.10;;
58685;SDS011;44465;53.206;-6.106;2022-12-10T05:04:01;1.63;;;0.90;;
58685;SDS011;44465;53.206;-6.106;2022-12-10T05:06:55;1.25;;;0.82;;
58685;SDS011;44465;53.206;-6.106;2022-12-10T05:09:20;2.13;;;0.77;;
58685;SDS011;44465;53.206;-6.106;2022-12-10T05:11:49;2.13;;;0.93;;
58685;SDS011;44465;53.206;-6.106;2022-12-10T05:14:14;2.35;;;1.15;;
58685;SDS011;44465;53.206;-6.106;2022-12-10T05:16:42;1.45;;;0.98;;
58685;SDS011;44465;53.206;-6.106;2022-12-10T05:19:11;1.00;;;0.90;;
58685;SDS011;44465;53.206;-6.106;2022-12-10T05:21:36;0.85;;;0.75;;
58685;SDS011;44465;53.206;-6.106;2022-12-10T05:24:24;1.15;;;0.88;;
58685;SDS011;44465;53.206;-6.106;2022-12-10T05:26:50;0.80;;;0.80;;
58685;SDS011;44465;53.206;-6.106;2022-12-10T05:31:46;2.90;;;1.15;;
58685;SDS011;44465;53.206;-6.106;2022-12-10T05:34:12;2.05;;;0.80;;
58685;SDS011;44465;53.206;-6.106;2022-12-10T05:36:38;1.60;;;1.00;;
58685;SDS011;44465;53.206;-6.106;2022-12-10T05:39:03;0.93;;;0.93;;
58685;SDS011;44465;53.206;-6.106;2022-12-10T05:41:31;1.15;;;0.90;;
58685;SDS011;44465;53.206;-6.106;2022-12-10T05:44:12;1.15;;;0.80;;
58685;SDS011;44465;53.206;-6.106;2022-12-10T05:46:38;1.60;;;0.80;;
58685;SDS011;44465;53.206;-6.106;2022-12-10T05:49:05;1.45;;;1.00;;
58685;SDS011;44465;53.206;-6.106;2022-12-10T05:51:35;1.00;;;1.00;;
58685;SDS011;44465;53.206;-6.106;2022-12-10T05:54:09;0.77;;;0.77;;
58685;SDS011;44465;53.206;-6.106;2022-12-10T05:56:35;1.42;;;0.75;;
58685;SDS011;44465;53.206;-6.106;2022-12-10T05:59:21;1.00;;;0.90;;
58685;SDS011;44465;53.206;-6.106;2022-12-10T06:01:46;0.60;;;0.60;;
58685;SDS011;44465;53.206;-6.106;2022-12-10T06:04:12;1.30;;;0.95;;
58685;SDS011;44465;53.206;-6.106;2022-12-10T06:06:39;2.10;;;0.73;;
58685;SDS011;44465;53.206;-6.106;2022-12-10T06:09:05;1.33;;;1.00;;
58685;SDS011;44465;53.206;-6.106;2022-12-10T06:11:36;1.60;;;1.17;;
58685;SDS011;44465;53.206;-6.106;2022-12-10T06:14:01;0.80;;;0.80;;
58685;SDS011;44465;53.206;-6.106;2022-12-10T06:16:27;1.02;;;0.90;;
58685;SDS011;44465;53.206;-6.106;2022-12-10T06:18:54;1.02;;;0.93;;
58685;SDS011;44465;53.206;-6.106;2022-12-10T06:21:20;1.88;;;0.70;;
58685;SDS011;44465;53.206;-6.106;2022-12-10T06:23:47;1.90;;;0.85;;
58685;SDS011;44465;53.206;-6.106;2022-12-10T06:26:15;0.93;;;0.90;;
58685;SDS011;44465;53.206;-6.106;2022-12-10T06:28:43;1.05;;;0.93;;
58685;SDS011;44465;53.206;-6.106;2022-12-10T06:31:16;1.50;;;1.02;;
58685;SDS011;44465;53.206;-6.106;2022-12-10T06:33:43;0.80;;;0.80;;
58685;SDS011;44465;53.206;-6.106;2022-12-10T06:36:09;1.35;;;0.80;;
58685;SDS011;44465;53.206;-6.106;2022-12-10T06:38:44;0.70;;;0.70;;
58685;SDS011;44465;53.206;-6.106;2022-12-10T06:41:14;1.33;;;0.90;;
58685;SDS011;44465;53.206;-6.106;2022-12-10T06:43:48;0.80;;;0.80;;
58685;SDS011;44465;53.206;-6.106;2022-12-10T06:46:15;0.98;;;0.85;;
58685;SDS011;44465;53.206;-6.106;2022-12-10T06:48:46;1.05;;;0.90;;
58685;SDS011;44465;53.206;-6.106;2022-12-10T06:51:13;2.10;;;0.95;;
58685;SDS011;44465;53.206;-6.106;2022-12-10T06:53:40;0.73;;;0.70;;
58685;SDS011;44465;53.206;-6.106;2022-12-10T06:56:15;2.65;;;1.35;;
58685;SDS011;44465;53.206;-6.106;2022-12-10T06:58:48;0.90;;;0.90;;
58685;SDS011;44465;53.206;-6.106;2022-12-10T07:01:18;1.60;;;1.00;;
58685;SDS011;44465;53.206;-6.106;2022-12-10T07:03:49;1.00;;;0.70;;
58685;SDS011;44465;53.206;-6.106;2022-12-10T07:06:20;1.13;;;1.00;;
58685;SDS011;44465;53.206;-6.106;2022-12-10T07:08:48;1.13;;;0.75;;
58685;SDS011;44465;53.206;-6.106;2022-12-10T07:11:14;0.73;;;0.70;;
58685;SDS011;44465;53.206;-6.106;2022-12-10T07:13:49;1.10;;;0.90;;
58685;SDS011;44465;53.206;-6.106;2022-12-10T07:16:18;1.70;;;0.80;;
58685;SDS011;44465;53.206;-6.106;2022-12-10T07:18:50;1.05;;;0.93;;
58685;SDS011;44465;53.206;-6.106;2022-12-10T07:21:21;1.08;;;0.80;;
58685;SDS011;44465;53.206;-6.106;2022-12-10T07:24:05;0.70;;;0.70;;
58685;SDS011;44465;53.206;-6.106;2022-12-10T07:26:51;0.80;;;0.80;;
58685;SDS011;44465;53.206;-6.106;2022-12-10T07:29:22;0.80;;;0.80;;
58685;SDS011;44465;53.206;-6.106;2022-12-10T07:31:48;1.00;;;0.80;;
58685;SDS011;44465;53.206;-6.106;2022-12-10T07:34:15;1.08;;;0.73;;
58685;SDS011;44465;53.206;-6.106;2022-12-10T07:36:44;0.80;;;0.80;;
58685;SDS011;44465;53.206;-6.106;2022-12-10T07:39:13;1.38;;;0.70;;
58685;SDS011;44465;53.206;-6.106;2022-12-10T07:41:50;2.83;;;0.93;;
58685;SDS011;44465;53.206;-6.106;2022-12-10T07:44:37;0.75;;;0.70;;
58685;SDS011;44465;53.206;-6.106;2022-12-10T07:47:02;1.05;;;0.90;;
58685;SDS011;44465;53.206;-6.106;2022-12-10T07:49:31;2.47;;;0.80;;
58685;SDS011;44465;53.206;-6.106;2022-12-10T07:52:02;1.08;;;1.00;;
58685;SDS011;44465;53.206;-6.106;2022-12-10T07:54:28;0.80;;;0.70;;
58685;SDS011;44465;53.206;-6.106;2022-12-10T07:56:53;1.83;;;0.60;;
58685;SDS011;44465;53.206;-6.106;2022-12-10T07:59:19;1.00;;;0.90;;
58685;SDS011;44465;53.206;-6.106;2022-12-10T08:01:44;1.33;;;1.05;;
58685;SDS011;44465;53.206;-6.106;2022-12-10T08:04:10;4.72;;;1.08;;
58685;SDS011;44465;53.206;-6.106;2022-12-10T08:06:35;1.02;;;0.80;;
58685;SDS011;44465;53.206;-6.106;2022-12-10T08:09:01;3.00;;;0.68;;
58685;SDS011;44465;53.206;-6.106;2022-12-10T08:11:28;6.57;;;1.02;;
58685;SDS011;44465;53.206;-6.106;2022-12-10T08:13:54;2.28;;;0.52;;
58685;SDS011;44465;53.206;-6.106;2022-12-10T08:16:22;1.58;;;0.90;;
58685;SDS011;44465;53.206;-6.106;2022-12-10T08:18:55;2.83;;;0.90;;
58685;SDS011;44465;53.206;-6.106;2022-12-10T08:21:25;3.67;;;1.23;;
58685;SDS011;44465;53.206;-6.106;2022-12-10T08:24:00;1.30;;;0.82;;
58685;SDS011;44465;53.206;-6.106;2022-12-10T08:26:27;2.47;;;0.80;;
58685;SDS011;44465;53.206;-6.106;2022-12-10T08:29:00;1.13;;;0.70;;
58685;SDS011;44465;53.206;-6.106;2022-12-10T08:31:26;0.88;;;0.77;;
58685;SDS011;44465;53.206;-6.106;2022-12-10T08:36:41;1.95;;;0.82;;
58685;SDS011;44465;53.206;-6.106;2022-12-10T08:39:23;1.33;;;1.10;;
58685;SDS011;44465;53.206;-6.106;2022-12-10T08:41:48;1.52;;;0.90;;
58685;SDS011;44465;53.206;-6.106;2022-12-10T08:44:14;1.83;;;0.93;;
58685;SDS011;44465;53.206;-6.106;2022-12-10T08:46:40;0.77;;;0.70;;
58685;SDS011;44465;53.206;-6.106;2022-12-10T08:49:11;0.73;;;0.70;;
58685;SDS011;44465;53.206;-6.106;2022-12-10T08:51:36;3.95;;;0.93;;
58685;SDS011;44465;53.206;-6.106;2022-12-10T08:54:03;1.52;;;0.70;;
58685;SDS011;44465;53.206;-6.106;2022-12-10T08:56:30;0.90;;;0.90;;
58685;SDS011;44465;53.206;-6.106;2022-12-10T08:58:56;1.60;;;0.85;;
58685;SDS011;44465;53.206;-6.106;2022-12-10T09:01:22;0.80;;;0.77;;
58685;SDS011;44465;53.206;-6.106;2022-12-10T09:03:48;0.65;;;0.63;;
58685;SDS011;44465;53.206;-6.106;2022-12-10T09:06:16;2.05;;;0.85;;
58685;SDS011;44465;53.206;-6.106;2022-12-10T09:08:44;3.03;;;0.68;;
58685;SDS011;44465;53.206;-6.106;2022-12-10T09:11:11;1.65;;;0.80;;
58685;SDS011;44465;53.206;-6.106;2022-12-10T09:13:43;0.85;;;0.60;;
58685;SDS011;44465;53.206;-6.106;2022-12-10T09:16:09;1.42;;;0.70;;
58685;SDS011;44465;53.206;-6.106;2022-12-10T09:18:35;1.10;;;0.93;;
58685;SDS011;44465;53.206;-6.106;2022-12-10T09:21:04;0.85;;;0.77;;
58685;SDS011;44465;53.206;-6.106;2022-12-10T09:23:55;1.15;;;0.75;;
58685;SDS011;44465;53.206;-6.106;2022-12-10T09:26:23;1.02;;;0.85;;
58685;SDS011;44465;53.206;-6.106;2022-12-10T09:28:53;1.05;;;0.90;;
58685;SDS011;44465;53.206;-6.106;2022-12-10T09:31:19;0.93;;;0.75;;
58685;SDS011;44465;53.206;-6.106;2022-12-10T09:33:46;0.77;;;0.77;;
58685;SDS011;44465;53.206;-6.106;2022-12-10T09:36:13;0.90;;;0.90;;
58685;SDS011;44465;53.206;-6.106;2022-12-10T09:38:41;1.52;;;1.08;;
58685;SDS011;44465;53.206;-6.106;2022-12-10T09:47:18;1.15;;;1.00;;
58685;SDS011;44465;53.206;-6.106;2022-12-10T09:52:47;1.38;;;0.80;;
58685;SDS011;44465;53.206;-6.106;2022-12-10T09:55:16;0.60;;;0.60;;
58685;SDS011;44465;53.206;-6.106;2022-12-10T09:58:17;1.13;;;0.95;;
58685;SDS011;44465;53.206;-6.106;2022-12-10T10:01:09;0.60;;;0.60;;
58685;SDS011;44465;53.206;-6.106;2022-12-10T10:03:43;0.80;;;0.80;;
58685;SDS011;44465;53.206;-6.106;2022-12-10T10:06:13;0.90;;;0.80;;
58685;SDS011;44465;53.206;-6.106;2022-12-10T10:08:45;0.73;;;0.73;;
58685;SDS011;44465;53.206;-6.106;2022-12-10T10:11:29;1.17;;;0.90;;
58685;SDS011;44465;53.206;-6.106;2022-12-10T10:14:10;0.70;;;0.70;;
58685;SDS011;44465;53.206;-6.106;2022-12-10T10:17:03;0.80;;;0.80;;
58685;SDS011;44465;53.206;-6.106;2022-12-10T10:19:36;0.80;;;0.77;;
58685;SDS011;44465;53.206;-6.106;2022-12-10T10:22:09;1.10;;;0.85;;
58685;SDS011;44465;53.206;-6.106;2022-12-10T10:24:46;0.70;;;0.70;;
58685;SDS011;44465;53.206;-6.106;2022-12-10T10:27:43;0.88;;;0.80;;
58685;SDS011;44465;53.206;-6.106;2022-12-10T10:30:19;0.95;;;0.82;;
58685;SDS011;44465;53.206;-6.106;2022-12-10T10:32:56;0.70;;;0.70;;
58685;SDS011;44465;53.206;-6.106;2022-12-10T10:35:30;0.70;;;0.70;;
58685;SDS011;44465;53.206;-6.106;2022-12-10T10:38:00;3.50;;;0.88;;
58685;SDS011;44465;53.206;-6.106;2022-12-10T10:40:32;1.58;;;0.70;;
58685;SDS011;44465;53.206;-6.106;2022-12-10T10:43:05;0.93;;;0.88;;
58685;SDS011;44465;53.206;-6.106;2022-12-10T10:45:36;0.75;;;0.75;;
58685;SDS011;44465;53.206;-6.106;2022-12-10T10:50:38;0.80;;;0.80;;
58685;SDS011;44465;53.206;-6.106;2022-12-10T10:53:22;1.55;;;0.93;;
58685;SDS011;44465;53.206;-6.106;2022-12-10T10:55:56;1.85;;;1.00;;
58685;SDS011;44465;53.206;-6.106;2022-12-10T11:04:47;1.35;;;0.77;;
58685;SDS011;44465;53.206;-6.106;2022-12-10T11:08:02;1.45;;;0.85;;
58685;SDS011;44465;53.206;-6.106;2022-12-10T11:11:57;0.90;;;0.90;;
58685;SDS011;44465;53.206;-6.106;2022-12-10T11:14:00;1.15;;;0.88;;
58685;SDS011;44465;53.206;-6.106;2022-12-10T11:16:46;0.80;;;0.80;;
58685;SDS011;44465;53.206;-6.106;2022-12-10T11:19:19;1.15;;;0.90;;
58685;SDS011;44465;53.206;-6.106;2022-12-10T11:21:48;1.15;;;0.80;;
58685;SDS011;44465;53.206;-6.106;2022-12-10T11:24:16;1.10;;;0.82;;
58685;SDS011;44465;53.206;-6.106;2022-12-10T11:27:04;2.75;;;1.42;;
58685;SDS011;44465;53.206;-6.106;2022-12-10T11:29:58;1.88;;;1.20;;
58685;SDS011;44465;53.206;-6.106;2022-12-10T11:35:19;1.00;;;0.70;;
58685;SDS011;44465;53.206;-6.106;2022-12-10T11:38:54;1.77;;;1.00;;
58685;SDS011;44465;53.206;-6.106;2022-12-10T11:41:38;1.10;;;0.93;;
58685;SDS011;44465;53.206;-6.106;2022-12-10T11:44:33;3.10;;;0.98;;
58685;SDS011;44465;53.206;-6.106;2022-12-10T11:58:53;1.35;;;0.85;;
58685;SDS011;44465;53.206;-6.106;2022-12-10T12:13:02;2.13;;;0.90;;
58685;SDS011;44465;53.206;-6.106;2022-12-10T12:21:44;0.80;;;0.80;;
58685;SDS011;44465;53.206;-6.106;2022-12-10T12:24:34;0.82;;;0.80;;
58685;SDS011;44465;53.206;-6.106;2022-12-10T12:27:38;0.98;;;0.80;;
58685;SDS011;44465;53.206;-6.106;2022-12-10T12:30:18;0.93;;;0.80;;
58685;SDS011;44465;53.206;-6.106;2022-12-10T12:35:23;0.68;;;0.68;;
58685;SDS011;44465;53.206;-6.106;2022-12-10T12:40:53;1.42;;;0.82;;
58685;SDS011;44465;53.206;-6.106;2022-12-10T12:43:50;2.30;;;1.00;;
58685;SDS011;44465;53.206;-6.106;2022-12-10T12:46:45;1.05;;;0.65;;
58685;SDS011;44465;53.206;-6.106;2022-12-10T12:49:31;2.00;;;0.93;;
58685;SDS011;44465;53.206;-6.106;2022-12-10T12:52:34;1.08;;;0.80;;
58685;SDS011;44465;53.206;-6.106;2022-12-10T12:55:11;1.23;;;0.93;;
58685;SDS011;44465;53.206;-6.106;2022-12-10T13:00:57;1.00;;;0.85;;
58685;SDS011;44465;53.206;-6.106;2022-12-10T13:03:33;2.13;;;0.93;;
58685;SDS011;44465;53.206;-6.106;2022-12-10T13:08:48;1.13;;;0.95;;
58685;SDS011;44465;53.206;-6.106;2022-12-10T13:11:41;1.10;;;0.88;;
58685;SDS011;44465;53.206;-6.106;2022-12-10T13:16:34;1.52;;;0.68;;
58685;SDS011;44465;53.206;-6.106;2022-12-10T13:25:10;1.02;;;0.93;;
58685;SDS011;44465;53.206;-6.106;2022-12-10T13:27:54;2.13;;;1.00;;
58685;SDS011;44465;53.206;-6.106;2022-12-10T13:30:40;1.05;;;1.02;;
58685;SDS011;44465;53.206;-6.106;2022-12-10T13:33:12;1.15;;;1.05;;
58685;SDS011;44465;53.206;-6.106;2022-12-10T13:35:44;2.35;;;0.80;;
58685;SDS011;44465;53.206;-6.106;2022-12-10T13:38:23;1.30;;;1.20;;
58685;SDS011;44465;53.206;-6.106;2022-12-10T13:40:58;1.00;;;0.90;;
58685;SDS011;44465;53.206;-6.106;2022-12-10T13:43:51;3.17;;;1.13;;
58685;SDS011;44465;53.206;-6.106;2022-12-10T13:49:18;7.38;;;2.10;;
58685;SDS011;44465;53.206;-6.106;2022-12-10T13:51:48;11.23;;;2.65;;
58685;SDS011;44465;53.206;-6.106;2022-12-10T14:00:20;25.05;;;3.45;;
58685;SDS011;44465;53.206;-6.106;2022-12-10T14:06:06;26.55;;;4.07;;
58685;SDS011;44465;53.206;-6.106;2022-12-10T14:14:36;15.85;;;3.28;;
58685;SDS011;44465;53.206;-6.106;2022-12-10T14:17:40;18.63;;;2.97;;
58685;SDS011;44465;53.206;-6.106;2022-12-10T14:20:11;11.77;;;2.38;;
58685;SDS011;44465;53.206;-6.106;2022-12-10T14:22:46;11.95;;;2.47;;
58685;SDS011;44465;53.206;-6.106;2022-12-10T14:25:20;6.95;;;2.42;;
58685;SDS011;44465;53.206;-6.106;2022-12-10T14:27:48;17.75;;;2.55;;
58685;SDS011;44465;53.206;-6.106;2022-12-10T14:30:17;21.85;;;2.50;;
58685;SDS011;44465;53.206;-6.106;2022-12-10T14:35:52;14.67;;;2.80;;
58685;SDS011;44465;53.206;-6.106;2022-12-10T14:38:23;8.05;;;2.05;;
58685;SDS011;44465;53.206;-6.106;2022-12-10T14:41:09;16.58;;;2.45;;
58685;SDS011;44465;53.206;-6.106;2022-12-10T14:43:40;7.88;;;1.85;;
58685;SDS011;44465;53.206;-6.106;2022-12-10T14:46:12;9.80;;;1.90;;
58685;SDS011;44465;53.206;-6.106;2022-12-10T14:48:41;3.58;;;1.58;;
58685;SDS011;44465;53.206;-6.106;2022-12-10T14:51:13;8.77;;;2.40;;
58685;SDS011;44465;53.206;-6.106;2022-12-10T14:53:41;8.55;;;1.92;;
58685;SDS011;44465;53.206;-6.106;2022-12-10T14:56:07;5.57;;;2.30;;
58685;SDS011;44465;53.206;-6.106;2022-12-10T14:58:41;8.57;;;1.80;;
58685;SDS011;44465;53.206;-6.106;2022-12-10T15:01:26;5.10;;;2.17;;
58685;SDS011;44465;53.206;-6.106;2022-12-10T15:03:56;5.25;;;1.67;;
58685;SDS011;44465;53.206;-6.106;2022-12-10T15:06:25;8.93;;;2.00;;
58685;SDS011;44465;53.206;-6.106;2022-12-10T15:08:53;5.85;;;1.67;;
58685;SDS011;44465;53.206;-6.106;2022-12-10T15:11:23;5.07;;;1.65;;
58685;SDS011;44465;53.206;-6.106;2022-12-10T15:13:57;2.65;;;1.42;;
58685;SDS011;44465;53.206;-6.106;2022-12-10T15:19:18;4.30;;;1.63;;
58685;SDS011;44465;53.206;-6.106;2022-12-10T15:21:45;5.75;;;2.03;;
58685;SDS011;44465;53.206;-6.106;2022-12-10T15:24:18;8.35;;;2.75;;
58685;SDS011;44465;53.206;-6.106;2022-12-10T15:26:51;6.45;;;1.75;;
58685;SDS011;44465;53.206;-6.106;2022-12-10T15:29:29;5.32;;;1.50;;
58685;SDS011;44465;53.206;-6.106;2022-12-10T15:32:10;2.28;;;1.65;;
58685;SDS011;44465;53.206;-6.106;2022-12-10T15:34:47;8.50;;;1.90;;
58685;SDS011;44465;53.206;-6.106;2022-12-10T15:37:23;10.45;;;2.15;;
58685;SDS011;44465;53.206;-6.106;2022-12-10T15:39:56;5.75;;;1.80;;
58685;SDS011;44465;53.206;-6.106;2022-12-10T15:43:37;12.65;;;2.08;;
58685;SDS011;44465;53.206;-6.106;2022-12-10T15:46:01;9.05;;;2.28;;
58685;SDS011;44465;53.206;-6.106;2022-12-10T15:48:46;5.25;;;1.80;;
58685;SDS011;44465;53.206;-6.106;2022-12-10T15:51:12;6.68;;;2.03;;
58685;SDS011;44465;53.206;-6.106;2022-12-10T15:53:39;7.32;;;1.50;;
58685;SDS011;44465;53.206;-6.106;2022-12-10T15:56:04;4.85;;;1.73;;
58685;SDS011;44465;53.206;-6.106;2022-12-10T15:58:30;2.63;;;1.52;;
58685;SDS011;44465;53.206;-6.106;2022-12-10T16:00:56;7.32;;;1.55;;
58685;SDS011;44465;53.206;-6.106;2022-12-10T16:03:21;5.95;;;2.03;;
58685;SDS011;44465;53.206;-6.106;2022-12-10T16:05:54;27.05;;;3.25;;
58685;SDS011;44465;53.206;-6.106;2022-12-10T16:08:29;14.98;;;2.70;;
58685;SDS011;44465;53.206;-6.106;2022-12-10T16:11:17;41.00;;;3.50;;
58685;SDS011;44465;53.206;-6.106;2022-12-10T16:13:51;11.10;;;2.70;;
58685;SDS011;44465;53.206;-6.106;2022-12-10T16:16:41;12.98;;;2.60;;
58685;SDS011;44465;53.206;-6.106;2022-12-10T16:19:16;9.18;;;2.95;;
58685;SDS011;44465;53.206;-6.106;2022-12-10T16:21:43;17.38;;;2.65;;
58685;SDS011;44465;53.206;-6.106;2022-12-10T16:24:13;14.60;;;2.65;;
58685;SDS011;44465;53.206;-6.106;2022-12-10T16:26:40;11.73;;;3.13;;
58685;SDS011;44465;53.206;-6.106;2022-12-10T16:29:07;10.57;;;2.33;;
58685;SDS011;44465;53.206;-6.106;2022-12-10T16:31:39;7.72;;;2.50;;
58685;SDS011;44465;53.206;-6.106;2022-12-10T16:34:04;12.15;;;2.55;;
58685;SDS011;44465;53.206;-6.106;2022-12-10T16:36:30;6.10;;;2.42;;
58685;SDS011;44465;53.206;-6.106;2022-12-10T16:38:59;9.38;;;3.00;;
58685;SDS011;44465;53.206;-6.106;2022-12-10T16:41:28;13.43;;;3.55;;
58685;SDS011;44465;53.206;-6.106;2022-12-10T16:43:53;3.60;;;1.95;;
58685;SDS011;44465;53.206;-6.106;2022-12-10T16:46:19;8.23;;;2.70;;
58685;SDS011;44465;53.206;-6.106;2022-12-10T16:48:48;8.60;;;2.53;;
58685;SDS011;44465;53.206;-6.106;2022-12-10T16:51:15;6.57;;;2.67;;
58685;SDS011;44465;53.206;-6.106;2022-12-10T16:53:56;9.52;;;2.60;;
58685;SDS011;44465;53.206;-6.106;2022-12-10T16:56:22;7.60;;;2.40;;
58685;SDS011;44465;53.206;-6.106;2022-12-10T16:58:48;4.32;;;2.40;;
58685;SDS011;44465;53.206;-6.106;2022-12-10T17:01:15;4.30;;;2.90;;
58685;SDS011;44465;53.206;-6.106;2022-12-10T17:04:02;5.85;;;2.70;;
58685;SDS011;44465;53.206;-6.106;2022-12-10T17:06:29;5.35;;;2.55;;
58685;SDS011;44465;53.206;-6.106;2022-12-10T17:08:55;5.83;;;2.73;;
58685;SDS011;44465;53.206;-6.106;2022-12-10T17:11:22;7.30;;;2.58;;
58685;SDS011;44465;53.206;-6.106;2022-12-10T17:14:13;4.50;;;2.80;;
58685;SDS011;44465;53.206;-6.106;2022-12-10T17:16:58;6.10;;;2.50;;